sensor_id;sensor_type;location;lat;lon;timestamp;P1;durP1;ratioP1;P2;durP2;ratioP2
3081;SDS011;1551;51.046;7.010;2023-04-19T00:01:29;12.10;;;10.07;;
3081;SDS011;1551;51.046;7.010;2023-04-19T00:04:18;12.65;;;9.50;;
3081;SDS011;1551;51.046;7.010;2023-04-19T00:07:08;11.45;;;10.25;;
3081;SDS011;1551;51.046;7.010;2023-04-19T00:09:57;10.77;;;9.68;;
3081;SDS011;1551;51.046;7.010;2023-04-19T00:12:46;10.88;;;9.77;;
3081;SDS011;1551;51.046;7.010;2023-04-19T00:15:35;10.93;;;9.82;;
3081;SDS011;1551;51.046;7.010;2023-04-19T00:18:25;10.75;;;9.75;;
3081;SDS011;1551;51.046;7.010;2023-04-19T00:21:14;11.43;;;9.70;;
3081;SDS011;1551;51.046;7.010;2023-04-19T00:24:04;11.60;;;10.35;;
3081;SDS011;1551;51.046;7.010;2023-04-19T00:26:54;10.40;;;9.30;;
3081;SDS011;1551;51.046;7.010;2023-04-19T00:29:43;11.00;;;9.90;;
3081;SDS011;1551;51.046;7.010;2023-04-19T00:32:32;10.40;;;9.40;;
3081;SDS011;1551;51.046;7.010;2023-04-19T00:35:21;11.00;;;9.40;;
3081;SDS011;1551;51.046;7.010;2023-04-19T00:38:10;11.98;;;9.77;;
3081;SDS011;1551;51.046;7.010;2023-04-19T00:40:58;10.02;;;8.40;;
3081;SDS011;1551;51.046;7.010;2023-04-19T00:43:48;9.95;;;8.90;;
3081;SDS011;1551;51.046;7.010;2023-04-19T00:46:37;11.10;;;9.57;;
3081;SDS011;1551;51.046;7.010;2023-04-19T00:49:28;10.85;;;9.38;;
3081;SDS011;1551;51.046;7.010;2023-04-19T00:52:17;9.73;;;8.50;;
3081;SDS011;1551;51.046;7.010;2023-04-19T00:55:10;10.00;;;8.80;;
3081;SDS011;1551;51.046;7.010;2023-04-19T00:57:59;10.20;;;9.17;;
3081;SDS011;1551;51.046;7.010;2023-04-19T01:00:48;9.90;;;8.90;;
3081;SDS011;1551;51.046;7.010;2023-04-19T01:03:37;10.38;;;8.35;;
3081;SDS011;1551;51.046;7.010;2023-04-19T01:06:26;9.27;;;8.20;;
3081;SDS011;1551;51.046;7.010;2023-04-19T01:09:17;12.15;;;8.90;;
3081;SDS011;1551;51.046;7.010;2023-04-19T01:12:06;8.88;;;7.97;;
3081;SDS011;1551;51.046;7.010;2023-04-19T01:14:56;9.77;;;8.43;;
3081;SDS011;1551;51.046;7.010;2023-04-19T01:17:45;9.32;;;7.70;;
3081;SDS011;1551;51.046;7.010;2023-04-19T01:20:34;9.57;;;8.60;;
3081;SDS011;1551;51.046;7.010;2023-04-19T01:23:23;10.70;;;8.75;;
3081;SDS011;1551;51.046;7.010;2023-04-19T01:26:12;9.63;;;8.20;;
3081;SDS011;1551;51.046;7.010;2023-04-19T01:29:01;9.82;;;8.82;;
3081;SDS011;1551;51.046;7.010;2023-04-19T01:31:51;9.23;;;7.20;;
3081;SDS011;1551;51.046;7.010;2023-04-19T01:34:41;9.60;;;8.50;;
3081;SDS011;1551;51.046;7.010;2023-04-19T01:37:33;8.10;;;6.70;;
3081;SDS011;1551;51.046;7.010;2023-04-19T01:40:24;7.97;;;6.97;;
3081;SDS011;1551;51.046;7.010;2023-04-19T01:43:14;10.18;;;7.75;;
3081;SDS011;1551;51.046;7.010;2023-04-19T01:46:06;10.20;;;8.07;;
3081;SDS011;1551;51.046;7.010;2023-04-19T01:48:54;9.13;;;8.13;;
3081;SDS011;1551;51.046;7.010;2023-04-19T01:51:44;10.98;;;9.68;;
3081;SDS011;1551;51.046;7.010;2023-04-19T01:54:33;12.17;;;10.83;;
3081;SDS011;1551;51.046;7.010;2023-04-19T01:57:22;14.15;;;11.48;;
3081;SDS011;1551;51.046;7.010;2023-04-19T02:00:11;13.75;;;12.35;;
3081;SDS011;1551;51.046;7.010;2023-04-19T02:03:03;14.20;;;12.70;;
3081;SDS011;1551;51.046;7.010;2023-04-19T02:05:52;14.88;;;13.27;;
3081;SDS011;1551;51.046;7.010;2023-04-19T02:08:43;14.00;;;12.60;;
3081;SDS011;1551;51.046;7.010;2023-04-19T02:11:32;15.40;;;13.90;;
3081;SDS011;1551;51.046;7.010;2023-04-19T02:14:21;16.07;;;14.37;;
3081;SDS011;1551;51.046;7.010;2023-04-19T02:17:10;16.23;;;13.80;;
3081;SDS011;1551;51.046;7.010;2023-04-19T02:20:01;15.30;;;13.70;;
3081;SDS011;1551;51.046;7.010;2023-04-19T02:22:50;15.80;;;14.20;;
3081;SDS011;1551;51.046;7.010;2023-04-19T02:25:39;16.08;;;14.38;;
3081;SDS011;1551;51.046;7.010;2023-04-19T02:28:29;16.00;;;14.20;;
3081;SDS011;1551;51.046;7.010;2023-04-19T02:31:19;16.17;;;14.30;;
3081;SDS011;1551;51.046;7.010;2023-04-19T02:34:08;16.55;;;14.55;;
3081;SDS011;1551;51.046;7.010;2023-04-19T02:36:57;15.50;;;13.05;;
3081;SDS011;1551;51.046;7.010;2023-04-19T02:39:46;15.70;;;13.68;;
3081;SDS011;1551;51.046;7.010;2023-04-19T02:42:35;15.90;;;13.50;;
3081;SDS011;1551;51.046;7.010;2023-04-19T02:45:24;13.90;;;12.50;;
3081;SDS011;1551;51.046;7.010;2023-04-19T02:48:13;14.85;;;13.35;;
3081;SDS011;1551;51.046;7.010;2023-04-19T02:51:01;14.20;;;12.70;;
3081;SDS011;1551;51.046;7.010;2023-04-19T02:53:51;16.30;;;13.53;;
3081;SDS011;1551;51.046;7.010;2023-04-19T02:56:40;13.52;;;11.68;;
3081;SDS011;1551;51.046;7.010;2023-04-19T02:59:29;14.10;;;12.43;;
3081;SDS011;1551;51.046;7.010;2023-04-19T03:02:21;15.20;;;11.93;;
3081;SDS011;1551;51.046;7.010;2023-04-19T03:05:10;13.55;;;12.05;;
3081;SDS011;1551;51.046;7.010;2023-04-19T03:07:59;14.35;;;11.55;;
3081;SDS011;1551;51.046;7.010;2023-04-19T03:10:49;14.20;;;12.20;;
3081;SDS011;1551;51.046;7.010;2023-04-19T03:13:38;13.20;;;11.80;;
3081;SDS011;1551;51.046;7.010;2023-04-19T03:16:28;13.27;;;11.65;;
3081;SDS011;1551;51.046;7.010;2023-04-19T03:19:19;12.48;;;11.20;;
3081;SDS011;1551;51.046;7.010;2023-04-19T03:22:13;13.30;;;11.90;;
3081;SDS011;1551;51.046;7.010;2023-04-19T03:25:05;13.75;;;12.00;;
3081;SDS011;1551;51.046;7.010;2023-04-19T03:27:55;13.27;;;11.90;;
3081;SDS011;1551;51.046;7.010;2023-04-19T03:31:01;13.73;;;12.32;;
3081;SDS011;1551;51.046;7.010;2023-04-19T03:33:50;13.48;;;12.07;;
3081;SDS011;1551;51.046;7.010;2023-04-19T03:36:41;14.90;;;11.90;;
3081;SDS011;1551;51.046;7.010;2023-04-19T03:39:30;12.60;;;11.30;;
3081;SDS011;1551;51.046;7.010;2023-04-19T03:42:24;13.33;;;11.93;;
3081;SDS011;1551;51.046;7.010;2023-04-19T03:45:29;13.00;;;11.70;;
3081;SDS011;1551;51.046;7.010;2023-04-19T03:48:18;12.82;;;11.63;;
3081;SDS011;1551;51.046;7.010;2023-04-19T03:51:07;13.40;;;12.02;;
3081;SDS011;1551;51.046;7.010;2023-04-19T03:53:57;15.07;;;11.90;;
3081;SDS011;1551;51.046;7.010;2023-04-19T03:56:46;12.73;;;11.43;;
3081;SDS011;1551;51.046;7.010;2023-04-19T03:59:35;13.63;;;11.60;;
3081;SDS011;1551;51.046;7.010;2023-04-19T04:02:25;12.80;;;10.90;;
3081;SDS011;1551;51.046;7.010;2023-04-19T04:05:14;13.32;;;11.73;;
3081;SDS011;1551;51.046;7.010;2023-04-19T04:08:04;13.32;;;11.02;;
3081;SDS011;1551;51.046;7.010;2023-04-19T04:10:53;13.13;;;11.80;;
3081;SDS011;1551;51.046;7.010;2023-04-19T04:13:44;13.25;;;11.02;;
3081;SDS011;1551;51.046;7.010;2023-04-19T04:16:39;14.18;;;12.00;;
3081;SDS011;1551;51.046;7.010;2023-04-19T04:19:29;12.10;;;10.53;;
3081;SDS011;1551;51.046;7.010;2023-04-19T04:22:19;13.52;;;10.90;;
3081;SDS011;1551;51.046;7.010;2023-04-19T04:25:10;13.52;;;11.10;;
3081;SDS011;1551;51.046;7.010;2023-04-19T04:28:01;13.23;;;11.38;;
3081;SDS011;1551;51.046;7.010;2023-04-19T04:30:49;12.30;;;11.00;;
3081;SDS011;1551;51.046;7.010;2023-04-19T04:33:39;12.55;;;11.25;;
3081;SDS011;1551;51.046;7.010;2023-04-19T04:36:32;13.15;;;11.18;;
3081;SDS011;1551;51.046;7.010;2023-04-19T04:39:22;11.68;;;10.43;;
3081;SDS011;1551;51.046;7.010;2023-04-19T04:42:11;13.15;;;11.02;;
3081;SDS011;1551;51.046;7.010;2023-04-19T04:45:01;12.25;;;10.95;;
3081;SDS011;1551;51.046;7.010;2023-04-19T04:47:52;13.15;;;11.80;;
3081;SDS011;1551;51.046;7.010;2023-04-19T04:50:41;13.07;;;11.20;;
3081;SDS011;1551;51.046;7.010;2023-04-19T04:53:31;13.07;;;11.70;;
3081;SDS011;1551;51.046;7.010;2023-04-19T04:56:23;12.95;;;11.55;;
3081;SDS011;1551;51.046;7.010;2023-04-19T04:59:14;13.18;;;11.07;;
3081;SDS011;1551;51.046;7.010;2023-04-19T05:02:06;15.30;;;11.55;;
3081;SDS011;1551;51.046;7.010;2023-04-19T05:04:56;13.23;;;10.57;;
3081;SDS011;1551;51.046;7.010;2023-04-19T05:07:44;12.65;;;11.25;;
3081;SDS011;1551;51.046;7.010;2023-04-19T05:10:34;12.57;;;10.60;;
3081;SDS011;1551;51.046;7.010;2023-04-19T05:13:23;11.45;;;10.25;;
3081;SDS011;1551;51.046;7.010;2023-04-19T05:16:12;11.97;;;10.63;;
3081;SDS011;1551;51.046;7.010;2023-04-19T05:19:04;12.23;;;11.02;;
3081;SDS011;1551;51.046;7.010;2023-04-19T05:21:58;13.30;;;10.55;;
3081;SDS011;1551;51.046;7.010;2023-04-19T05:24:47;12.87;;;10.70;;
3081;SDS011;1551;51.046;7.010;2023-04-19T05:27:38;11.60;;;10.40;;
3081;SDS011;1551;51.046;7.010;2023-04-19T05:30:27;11.32;;;10.00;;
3081;SDS011;1551;51.046;7.010;2023-04-19T05:33:16;10.80;;;9.70;;
3081;SDS011;1551;51.046;7.010;2023-04-19T05:36:06;11.55;;;9.20;;
3081;SDS011;1551;51.046;7.010;2023-04-19T05:38:56;9.85;;;8.43;;
3081;SDS011;1551;51.046;7.010;2023-04-19T05:41:45;10.05;;;8.30;;
3081;SDS011;1551;51.046;7.010;2023-04-19T05:44:34;10.40;;;8.50;;
3081;SDS011;1551;51.046;7.010;2023-04-19T05:47:23;12.33;;;8.80;;
3081;SDS011;1551;51.046;7.010;2023-04-19T05:50:25;11.00;;;8.63;;
3081;SDS011;1551;51.046;7.010;2023-04-19T05:53:34;9.70;;;7.50;;
3081;SDS011;1551;51.046;7.010;2023-04-19T05:56:23;8.30;;;7.15;;
3081;SDS011;1551;51.046;7.010;2023-04-19T05:59:14;7.53;;;6.72;;
3081;SDS011;1551;51.046;7.010;2023-04-19T06:02:03;11.45;;;6.80;;
3081;SDS011;1551;51.046;7.010;2023-04-19T06:04:53;7.90;;;6.57;;
3081;SDS011;1551;51.046;7.010;2023-04-19T06:07:41;8.65;;;6.00;;
3081;SDS011;1551;51.046;7.010;2023-04-19T06:10:30;8.65;;;6.22;;
3081;SDS011;1551;51.046;7.010;2023-04-19T06:13:19;7.80;;;6.50;;
3081;SDS011;1551;51.046;7.010;2023-04-19T06:16:09;7.20;;;6.10;;
3081;SDS011;1551;51.046;7.010;2023-04-19T06:18:58;9.07;;;6.82;;
3081;SDS011;1551;51.046;7.010;2023-04-19T06:21:48;7.63;;;6.03;;
3081;SDS011;1551;51.046;7.010;2023-04-19T06:24:37;7.97;;;6.03;;
3081;SDS011;1551;51.046;7.010;2023-04-19T06:27:26;9.07;;;6.10;;
3081;SDS011;1551;51.046;7.010;2023-04-19T06:30:15;5.78;;;5.10;;
3081;SDS011;1551;51.046;7.010;2023-04-19T06:33:04;8.18;;;5.75;;
3081;SDS011;1551;51.046;7.010;2023-04-19T06:35:53;9.52;;;6.30;;
3081;SDS011;1551;51.046;7.010;2023-04-19T06:38:42;8.45;;;5.20;;
3081;SDS011;1551;51.046;7.010;2023-04-19T06:41:32;8.53;;;5.43;;
3081;SDS011;1551;51.046;7.010;2023-04-19T06:44:21;8.20;;;5.20;;
3081;SDS011;1551;51.046;7.010;2023-04-19T06:47:10;6.53;;;5.60;;
3081;SDS011;1551;51.046;7.010;2023-04-19T06:49:59;7.40;;;5.50;;
3081;SDS011;1551;51.046;7.010;2023-04-19T06:52:48;7.75;;;5.80;;
3081;SDS011;1551;51.046;7.010;2023-04-19T06:55:36;7.55;;;5.18;;
3081;SDS011;1551;51.046;7.010;2023-04-19T06:58:26;7.72;;;5.53;;
3081;SDS011;1551;51.046;7.010;2023-04-19T07:01:16;5.63;;;5.00;;
3081;SDS011;1551;51.046;7.010;2023-04-19T07:04:06;6.82;;;5.30;;
3081;SDS011;1551;51.046;7.010;2023-04-19T07:06:56;6.17;;;5.30;;
3081;SDS011;1551;51.046;7.010;2023-04-19T07:09:45;6.82;;;5.15;;
3081;SDS011;1551;51.046;7.010;2023-04-19T07:12:34;7.00;;;5.00;;
3081;SDS011;1551;51.046;7.010;2023-04-19T07:15:23;7.53;;;5.60;;
3081;SDS011;1551;51.046;7.010;2023-04-19T07:18:12;5.88;;;4.97;;
3081;SDS011;1551;51.046;7.010;2023-04-19T07:21:04;6.10;;;4.93;;
3081;SDS011;1551;51.046;7.010;2023-04-19T07:23:52;8.80;;;5.30;;
3081;SDS011;1551;51.046;7.010;2023-04-19T07:26:41;7.70;;;5.10;;
3081;SDS011;1551;51.046;7.010;2023-04-19T07:29:30;6.80;;;5.10;;
3081;SDS011;1551;51.046;7.010;2023-04-19T07:32:19;6.50;;;5.05;;
3081;SDS011;1551;51.046;7.010;2023-04-19T07:35:08;6.30;;;5.25;;
3081;SDS011;1551;51.046;7.010;2023-04-19T07:37:57;5.72;;;4.75;;
3081;SDS011;1551;51.046;7.010;2023-04-19T07:40:46;8.20;;;5.63;;
3081;SDS011;1551;51.046;7.010;2023-04-19T07:43:35;7.17;;;5.00;;
3081;SDS011;1551;51.046;7.010;2023-04-19T07:46:24;7.45;;;5.30;;
3081;SDS011;1551;51.046;7.010;2023-04-19T07:49:15;6.60;;;5.88;;
3081;SDS011;1551;51.046;7.010;2023-04-19T07:52:06;7.25;;;6.00;;
3081;SDS011;1551;51.046;7.010;2023-04-19T07:54:55;8.40;;;6.27;;
3081;SDS011;1551;51.046;7.010;2023-04-19T07:57:44;7.23;;;5.77;;
3081;SDS011;1551;51.046;7.010;2023-04-19T08:00:36;7.13;;;5.70;;
3081;SDS011;1551;51.046;7.010;2023-04-19T08:03:25;8.20;;;6.03;;
3081;SDS011;1551;51.046;7.010;2023-04-19T08:06:15;7.20;;;5.70;;
3081;SDS011;1551;51.046;7.010;2023-04-19T08:09:05;6.40;;;5.35;;
3081;SDS011;1551;51.046;7.010;2023-04-19T08:11:54;8.00;;;5.87;;
3081;SDS011;1551;51.046;7.010;2023-04-19T08:14:45;6.95;;;5.68;;
3081;SDS011;1551;51.046;7.010;2023-04-19T08:17:35;6.47;;;5.40;;
3081;SDS011;1551;51.046;7.010;2023-04-19T08:20:24;7.50;;;6.00;;
3081;SDS011;1551;51.046;7.010;2023-04-19T08:23:13;7.28;;;5.45;;
3081;SDS011;1551;51.046;7.010;2023-04-19T08:26:02;6.90;;;6.10;;
3081;SDS011;1551;51.046;7.010;2023-04-19T08:28:51;7.22;;;5.57;;
3081;SDS011;1551;51.046;7.010;2023-04-19T08:31:42;6.32;;;5.72;;
3081;SDS011;1551;51.046;7.010;2023-04-19T08:34:34;6.53;;;5.75;;
3081;SDS011;1551;51.046;7.010;2023-04-19T08:37:24;6.05;;;5.32;;
3081;SDS011;1551;51.046;7.010;2023-04-19T08:40:13;7.93;;;5.68;;
3081;SDS011;1551;51.046;7.010;2023-04-19T08:43:04;6.72;;;5.18;;
3081;SDS011;1551;51.046;7.010;2023-04-19T08:45:54;6.10;;;4.73;;
3081;SDS011;1551;51.046;7.010;2023-04-19T08:48:44;8.35;;;5.30;;
3081;SDS011;1551;51.046;7.010;2023-04-19T08:51:34;6.63;;;5.05;;
3081;SDS011;1551;51.046;7.010;2023-04-19T08:54:24;6.30;;;4.60;;
3081;SDS011;1551;51.046;7.010;2023-04-19T08:57:14;6.07;;;4.60;;
3081;SDS011;1551;51.046;7.010;2023-04-19T09:00:03;7.00;;;5.32;;
3081;SDS011;1551;51.046;7.010;2023-04-19T09:02:57;7.30;;;5.10;;
3081;SDS011;1551;51.046;7.010;2023-04-19T09:05:46;5.63;;;4.60;;
3081;SDS011;1551;51.046;7.010;2023-04-19T09:08:35;5.50;;;4.53;;
3081;SDS011;1551;51.046;7.010;2023-04-19T09:11:37;6.72;;;4.43;;
3081;SDS011;1551;51.046;7.010;2023-04-19T09:14:26;5.63;;;4.93;;
3081;SDS011;1551;51.046;7.010;2023-04-19T09:17:18;6.13;;;4.90;;
3081;SDS011;1551;51.046;7.010;2023-04-19T09:20:06;7.38;;;4.68;;
3081;SDS011;1551;51.046;7.010;2023-04-19T09:23:06;9.32;;;4.68;;
3081;SDS011;1551;51.046;7.010;2023-04-19T09:25:58;6.00;;;4.20;;
3081;SDS011;1551;51.046;7.010;2023-04-19T09:28:59;6.32;;;4.07;;
3081;SDS011;1551;51.046;7.010;2023-04-19T09:31:58;6.78;;;4.47;;
3081;SDS011;1551;51.046;7.010;2023-04-19T09:34:57;7.00;;;4.70;;
3081;SDS011;1551;51.046;7.010;2023-04-19T09:37:57;5.32;;;4.35;;
3081;SDS011;1551;51.046;7.010;2023-04-19T09:40:48;6.93;;;4.10;;
3081;SDS011;1551;51.046;7.010;2023-04-19T09:43:37;6.00;;;3.90;;
3081;SDS011;1551;51.046;7.010;2023-04-19T09:46:33;5.68;;;4.15;;
3081;SDS011;1551;51.046;7.010;2023-04-19T09:49:24;5.00;;;3.75;;
3081;SDS011;1551;51.046;7.010;2023-04-19T09:52:14;6.38;;;4.18;;
3081;SDS011;1551;51.046;7.010;2023-04-19T09:55:04;7.03;;;3.45;;
3081;SDS011;1551;51.046;7.010;2023-04-19T09:57:54;5.35;;;3.40;;
3081;SDS011;1551;51.046;7.010;2023-04-19T10:00:43;4.40;;;3.20;;
3081;SDS011;1551;51.046;7.010;2023-04-19T10:03:35;7.78;;;3.85;;
3081;SDS011;1551;51.046;7.010;2023-04-19T10:06:24;4.35;;;3.28;;
3081;SDS011;1551;51.046;7.010;2023-04-19T10:09:14;7.50;;;4.10;;
3081;SDS011;1551;51.046;7.010;2023-04-19T10:12:05;5.40;;;3.90;;
3081;SDS011;1551;51.046;7.010;2023-04-19T10:14:55;6.40;;;3.60;;
3081;SDS011;1551;51.046;7.010;2023-04-19T10:17:45;4.53;;;3.63;;
3081;SDS011;1551;51.046;7.010;2023-04-19T10:20:42;5.63;;;3.83;;
3081;SDS011;1551;51.046;7.010;2023-04-19T10:23:37;4.75;;;3.60;;
3081;SDS011;1551;51.046;7.010;2023-04-19T10:26:26;6.00;;;3.90;;
3081;SDS011;1551;51.046;7.010;2023-04-19T10:29:28;6.40;;;3.65;;
3081;SDS011;1551;51.046;7.010;2023-04-19T10:32:50;5.25;;;3.72;;
3081;SDS011;1551;51.046;7.010;2023-04-19T10:35:41;4.97;;;3.80;;
3081;SDS011;1551;51.046;7.010;2023-04-19T10:38:36;4.13;;;3.60;;
3081;SDS011;1551;51.046;7.010;2023-04-19T10:41:54;4.75;;;3.40;;
3081;SDS011;1551;51.046;7.010;2023-04-19T10:44:36;6.07;;;3.70;;
3081;SDS011;1551;51.046;7.010;2023-04-19T10:47:40;4.40;;;3.60;;
3081;SDS011;1551;51.046;7.010;2023-04-19T10:50:56;6.05;;;3.75;;
3081;SDS011;1551;51.046;7.010;2023-04-19T10:59:31;4.40;;;3.50;;
3081;SDS011;1551;51.046;7.010;2023-04-19T11:05:09;4.90;;;3.10;;
3081;SDS011;1551;51.046;7.010;2023-04-19T11:08:01;4.45;;;3.22;;
3081;SDS011;1551;51.046;7.010;2023-04-19T11:10:51;4.40;;;3.40;;
3081;SDS011;1551;51.046;7.010;2023-04-19T11:13:48;4.65;;;3.40;;
3081;SDS011;1551;51.046;7.010;2023-04-19T11:16:37;5.22;;;3.20;;
3081;SDS011;1551;51.046;7.010;2023-04-19T11:19:26;4.13;;;3.40;;
3081;SDS011;1551;51.046;7.010;2023-04-19T11:22:15;4.90;;;2.65;;
3081;SDS011;1551;51.046;7.010;2023-04-19T11:25:04;5.50;;;2.90;;
3081;SDS011;1551;51.046;7.010;2023-04-19T11:27:54;3.80;;;2.53;;
3081;SDS011;1551;51.046;7.010;2023-04-19T11:30:43;4.20;;;2.80;;
3081;SDS011;1551;51.046;7.010;2023-04-19T11:33:34;4.38;;;3.50;;
3081;SDS011;1551;51.046;7.010;2023-04-19T11:36:24;3.42;;;2.60;;
3081;SDS011;1551;51.046;7.010;2023-04-19T11:39:13;4.60;;;2.40;;
3081;SDS011;1551;51.046;7.010;2023-04-19T11:42:02;5.78;;;2.78;;
3081;SDS011;1551;51.046;7.010;2023-04-19T11:44:51;4.40;;;2.70;;
3081;SDS011;1551;51.046;7.010;2023-04-19T11:47:47;3.80;;;2.50;;
3081;SDS011;1551;51.046;7.010;2023-04-19T11:53:26;4.40;;;2.60;;
3081;SDS011;1551;51.046;7.010;2023-04-19T11:56:15;3.37;;;2.63;;
3081;SDS011;1551;51.046;7.010;2023-04-19T11:59:04;4.90;;;2.50;;
3081;SDS011;1551;51.046;7.010;2023-04-19T12:02:07;5.95;;;2.92;;
3081;SDS011;1551;51.046;7.010;2023-04-19T12:05:05;3.20;;;2.58;;
3081;SDS011;1551;51.046;7.010;2023-04-19T12:10:55;5.05;;;2.47;;
3081;SDS011;1551;51.046;7.010;2023-04-19T12:13:45;4.82;;;3.10;;
3081;SDS011;1551;51.046;7.010;2023-04-19T12:16:34;5.65;;;3.28;;
3081;SDS011;1551;51.046;7.010;2023-04-19T12:19:23;7.30;;;3.60;;
3081;SDS011;1551;51.046;7.010;2023-04-19T12:22:15;3.78;;;2.67;;
3081;SDS011;1551;51.046;7.010;2023-04-19T12:25:09;5.67;;;2.77;;
3081;SDS011;1551;51.046;7.010;2023-04-19T12:27:59;4.90;;;2.70;;
3081;SDS011;1551;51.046;7.010;2023-04-19T12:30:50;4.82;;;3.00;;
3081;SDS011;1551;51.046;7.010;2023-04-19T12:33:40;6.40;;;2.70;;
3081;SDS011;1551;51.046;7.010;2023-04-19T12:36:30;4.60;;;2.55;;
3081;SDS011;1551;51.046;7.010;2023-04-19T12:39:25;4.38;;;2.90;;
3081;SDS011;1551;51.046;7.010;2023-04-19T12:42:14;4.80;;;3.50;;
3081;SDS011;1551;51.046;7.010;2023-04-19T12:45:03;6.60;;;3.70;;
3081;SDS011;1551;51.046;7.010;2023-04-19T12:47:52;6.22;;;3.33;;
3081;SDS011;1551;51.046;7.010;2023-04-19T12:50:42;4.35;;;2.80;;
3081;SDS011;1551;51.046;7.010;2023-04-19T12:53:30;3.40;;;2.83;;
3081;SDS011;1551;51.046;7.010;2023-04-19T12:56:19;4.53;;;3.28;;
3081;SDS011;1551;51.046;7.010;2023-04-19T12:59:09;4.43;;;3.28;;
3081;SDS011;1551;51.046;7.010;2023-04-19T13:01:58;9.30;;;3.55;;
3081;SDS011;1551;51.046;7.010;2023-04-19T13:04:47;5.43;;;3.30;;
3081;SDS011;1551;51.046;7.010;2023-04-19T13:07:36;5.40;;;3.30;;
3081;SDS011;1551;51.046;7.010;2023-04-19T13:10:25;4.00;;;3.00;;
3081;SDS011;1551;51.046;7.010;2023-04-19T13:13:14;4.35;;;2.70;;
3081;SDS011;1551;51.046;7.010;2023-04-19T13:16:04;7.07;;;2.65;;
3081;SDS011;1551;51.046;7.010;2023-04-19T13:18:55;7.38;;;3.60;;
3081;SDS011;1551;51.046;7.010;2023-04-19T13:21:44;4.43;;;3.20;;
3081;SDS011;1551;51.046;7.010;2023-04-19T13:24:33;3.92;;;2.85;;
3081;SDS011;1551;51.046;7.010;2023-04-19T13:27:22;6.20;;;3.00;;
3081;SDS011;1551;51.046;7.010;2023-04-19T13:30:11;5.00;;;2.60;;
3081;SDS011;1551;51.046;7.010;2023-04-19T13:33:00;5.55;;;2.85;;
3081;SDS011;1551;51.046;7.010;2023-04-19T13:35:49;4.78;;;2.70;;
3081;SDS011;1551;51.046;7.010;2023-04-19T13:38:38;4.93;;;2.90;;
3081;SDS011;1551;51.046;7.010;2023-04-19T13:41:28;6.55;;;3.00;;
3081;SDS011;1551;51.046;7.010;2023-04-19T13:44:17;4.10;;;3.08;;
3081;SDS011;1551;51.046;7.010;2023-04-19T13:47:05;4.23;;;2.40;;
3081;SDS011;1551;51.046;7.010;2023-04-19T13:49:54;5.90;;;3.03;;
3081;SDS011;1551;51.046;7.010;2023-04-19T13:52:43;6.55;;;3.42;;
3081;SDS011;1551;51.046;7.010;2023-04-19T13:55:32;4.40;;;2.60;;
3081;SDS011;1551;51.046;7.010;2023-04-19T13:58:21;6.72;;;4.10;;
3081;SDS011;1551;51.046;7.010;2023-04-19T14:01:12;9.27;;;3.17;;
3081;SDS011;1551;51.046;7.010;2023-04-19T14:04:01;4.65;;;2.63;;
3081;SDS011;1551;51.046;7.010;2023-04-19T14:06:50;4.03;;;2.60;;
3081;SDS011;1551;51.046;7.010;2023-04-19T14:09:39;4.60;;;3.05;;
3081;SDS011;1551;51.046;7.010;2023-04-19T14:12:30;4.40;;;2.85;;
3081;SDS011;1551;51.046;7.010;2023-04-19T14:15:19;7.10;;;3.40;;
3081;SDS011;1551;51.046;7.010;2023-04-19T14:18:10;4.22;;;3.25;;
3081;SDS011;1551;51.046;7.010;2023-04-19T14:20:58;3.95;;;3.25;;
3081;SDS011;1551;51.046;7.010;2023-04-19T14:23:48;3.72;;;2.83;;
3081;SDS011;1551;51.046;7.010;2023-04-19T14:26:39;4.00;;;3.15;;
3081;SDS011;1551;51.046;7.010;2023-04-19T14:29:29;5.60;;;3.22;;
3081;SDS011;1551;51.046;7.010;2023-04-19T14:32:18;4.40;;;3.00;;
3081;SDS011;1551;51.046;7.010;2023-04-19T14:35:07;3.83;;;2.80;;
3081;SDS011;1551;51.046;7.010;2023-04-19T14:37:59;6.63;;;3.90;;
3081;SDS011;1551;51.046;7.010;2023-04-19T14:40:48;4.38;;;3.17;;
3081;SDS011;1551;51.046;7.010;2023-04-19T14:43:36;3.90;;;3.10;;
3081;SDS011;1551;51.046;7.010;2023-04-19T14:46:25;6.40;;;3.70;;
3081;SDS011;1551;51.046;7.010;2023-04-19T14:49:14;6.13;;;3.60;;
3081;SDS011;1551;51.046;7.010;2023-04-19T14:52:03;5.13;;;3.45;;
3081;SDS011;1551;51.046;7.010;2023-04-19T14:54:52;7.47;;;3.33;;
3081;SDS011;1551;51.046;7.010;2023-04-19T14:57:41;5.45;;;3.70;;
3081;SDS011;1551;51.046;7.010;2023-04-19T15:00:31;5.15;;;3.30;;
3081;SDS011;1551;51.046;7.010;2023-04-19T15:03:20;6.93;;;3.55;;
3081;SDS011;1551;51.046;7.010;2023-04-19T15:06:09;3.90;;;3.30;;
3081;SDS011;1551;51.046;7.010;2023-04-19T15:08:58;4.85;;;2.90;;
3081;SDS011;1551;51.046;7.010;2023-04-19T15:11:47;3.97;;;3.17;;
3081;SDS011;1551;51.046;7.010;2023-04-19T15:14:37;4.00;;;2.90;;
3081;SDS011;1551;51.046;7.010;2023-04-19T15:17:26;4.40;;;2.93;;
3081;SDS011;1551;51.046;7.010;2023-04-19T15:20:15;5.60;;;3.10;;
3081;SDS011;1551;51.046;7.010;2023-04-19T15:23:05;3.90;;;3.13;;
3081;SDS011;1551;51.046;7.010;2023-04-19T15:25:54;6.80;;;2.78;;
3081;SDS011;1551;51.046;7.010;2023-04-19T15:28:43;4.95;;;3.20;;
3081;SDS011;1551;51.046;7.010;2023-04-19T15:31:32;4.22;;;3.40;;
3081;SDS011;1551;51.046;7.010;2023-04-19T15:34:22;7.27;;;3.40;;
3081;SDS011;1551;51.046;7.010;2023-04-19T15:37:13;6.90;;;3.08;;
3081;SDS011;1551;51.046;7.010;2023-04-19T15:40:02;5.40;;;4.20;;
3081;SDS011;1551;51.046;7.010;2023-04-19T15:42:51;3.80;;;3.07;;
3081;SDS011;1551;51.046;7.010;2023-04-19T15:45:40;5.37;;;3.30;;
3081;SDS011;1551;51.046;7.010;2023-04-19T15:48:29;4.70;;;3.20;;
3081;SDS011;1551;51.046;7.010;2023-04-19T15:51:18;5.03;;;2.95;;
3081;SDS011;1551;51.046;7.010;2023-04-19T15:54:08;6.50;;;2.90;;
3081;SDS011;1551;51.046;7.010;2023-04-19T15:56:58;4.45;;;3.00;;
3081;SDS011;1551;51.046;7.010;2023-04-19T15:59:47;3.88;;;2.80;;
3081;SDS011;1551;51.046;7.010;2023-04-19T16:02:36;4.72;;;3.17;;
3081;SDS011;1551;51.046;7.010;2023-04-19T16:05:25;3.92;;;3.00;;
3081;SDS011;1551;51.046;7.010;2023-04-19T16:08:14;5.15;;;3.00;;
3081;SDS011;1551;51.046;7.010;2023-04-19T16:11:06;5.65;;;2.70;;
3081;SDS011;1551;51.046;7.010;2023-04-19T16:13:55;6.20;;;2.70;;
3081;SDS011;1551;51.046;7.010;2023-04-19T16:16:44;3.38;;;2.55;;
3081;SDS011;1551;51.046;7.010;2023-04-19T16:19:33;4.03;;;2.42;;
3081;SDS011;1551;51.046;7.010;2023-04-19T16:22:22;4.80;;;2.75;;
3081;SDS011;1551;51.046;7.010;2023-04-19T16:25:11;3.10;;;2.60;;
3081;SDS011;1551;51.046;7.010;2023-04-19T16:28:02;4.80;;;2.90;;
3081;SDS011;1551;51.046;7.010;2023-04-19T16:30:50;3.63;;;2.60;;
3081;SDS011;1551;51.046;7.010;2023-04-19T16:33:39;5.03;;;3.10;;
3081;SDS011;1551;51.046;7.010;2023-04-19T16:36:28;3.47;;;2.40;;
3081;SDS011;1551;51.046;7.010;2023-04-19T16:39:17;5.18;;;3.10;;
3081;SDS011;1551;51.046;7.010;2023-04-19T16:42:06;6.53;;;3.70;;
3081;SDS011;1551;51.046;7.010;2023-04-19T16:44:55;5.27;;;3.00;;
3081;SDS011;1551;51.046;7.010;2023-04-19T16:47:44;5.17;;;3.10;;
3081;SDS011;1551;51.046;7.010;2023-04-19T16:50:33;5.13;;;2.75;;
3081;SDS011;1551;51.046;7.010;2023-04-19T16:53:22;5.53;;;3.10;;
3081;SDS011;1551;51.046;7.010;2023-04-19T16:56:11;4.40;;;2.67;;
3081;SDS011;1551;51.046;7.010;2023-04-19T16:59:01;4.32;;;2.42;;
3081;SDS011;1551;51.046;7.010;2023-04-19T17:01:50;3.40;;;2.45;;
3081;SDS011;1551;51.046;7.010;2023-04-19T17:04:40;5.50;;;2.40;;
3081;SDS011;1551;51.046;7.010;2023-04-19T17:07:29;3.00;;;2.45;;
3081;SDS011;1551;51.046;7.010;2023-04-19T17:10:18;4.88;;;2.30;;
3081;SDS011;1551;51.046;7.010;2023-04-19T17:13:07;3.13;;;2.17;;
3081;SDS011;1551;51.046;7.010;2023-04-19T17:15:56;3.20;;;2.10;;
3081;SDS011;1551;51.046;7.010;2023-04-19T17:18:45;3.03;;;2.30;;
3081;SDS011;1551;51.046;7.010;2023-04-19T17:21:33;3.50;;;2.28;;
3081;SDS011;1551;51.046;7.010;2023-04-19T17:24:23;4.20;;;2.20;;
3081;SDS011;1551;51.046;7.010;2023-04-19T17:27:12;4.53;;;2.22;;
3081;SDS011;1551;51.046;7.010;2023-04-19T17:30:01;4.10;;;2.83;;
3081;SDS011;1551;51.046;7.010;2023-04-19T17:32:50;4.13;;;2.33;;
3081;SDS011;1551;51.046;7.010;2023-04-19T17:35:39;4.82;;;2.40;;
3081;SDS011;1551;51.046;7.010;2023-04-19T17:38:28;4.10;;;2.20;;
3081;SDS011;1551;51.046;7.010;2023-04-19T17:41:17;3.60;;;2.28;;
3081;SDS011;1551;51.046;7.010;2023-04-19T17:44:06;5.45;;;2.92;;